createdAt,value
2019-05-25T00:02:26.185Z,13.57
2019-05-25T00:04:54.717Z,13.17
2019-05-25T00:07:23.326Z,16.43
2019-05-25T00:09:51.795Z,17.13
2019-05-25T00:12:20.251Z,17.23
2019-05-25T00:14:48.719Z,14.17
2019-05-25T00:17:17.224Z,13.20
2019-05-25T00:19:45.671Z,14.90
2019-05-25T00:22:14.201Z,12.17
2019-05-25T00:24:42.836Z,15.73
2019-05-25T00:27:11.600Z,18.30
2019-05-25T00:29:40.047Z,15.13
2019-05-25T00:32:08.685Z,19.00
2019-05-25T00:34:37.332Z,14.93
2019-05-25T00:37:05.742Z,13.67
2019-05-25T00:39:34.235Z,18.57
2019-05-25T00:42:02.806Z,13.87
2019-05-25T00:44:31.254Z,11.93
2019-05-25T00:46:59.919Z,18.40
2019-05-25T00:49:28.451Z,11.93
2019-05-25T00:51:56.900Z,15.47
2019-05-25T00:54:28.236Z,15.33
2019-05-25T00:56:55.765Z,12.87
2019-05-25T00:59:24.337Z,13.40
2019-05-25T01:01:52.802Z,15.93
2019-05-25T01:04:21.322Z,15.10
2019-05-25T01:06:49.842Z,15.27
2019-05-25T01:09:18.485Z,16.10
2019-05-25T01:11:47.128Z,14.27
2019-05-25T01:14:15.609Z,13.23
2019-05-25T01:16:44.115Z,14.70
2019-05-25T01:19:12.574Z,13.13
2019-05-25T01:21:41.158Z,11.33
2019-05-25T01:24:09.628Z,16.93
2019-05-25T01:26:38.095Z,12.97
2019-05-25T01:29:06.554Z,13.37
2019-05-25T01:31:34.994Z,15.43
2019-05-25T01:34:03.523Z,14.67
2019-05-25T01:36:31.987Z,15.07
2019-05-25T01:39:00.466Z,17.83
2019-05-25T01:41:29.172Z,15.50
2019-05-25T01:43:57.862Z,14.27
2019-05-25T01:46:28.224Z,13.27
2019-05-25T01:48:59.816Z,17.53
2019-05-25T01:51:28.343Z,17.10
2019-05-25T01:53:56.864Z,20.00
2019-05-25T01:56:25.457Z,21.20
2019-05-25T01:58:54.038Z,20.10
2019-05-25T02:01:22.668Z,17.13
2019-05-25T02:03:51.358Z,18.57
2019-05-25T02:06:19.978Z,21.67
2019-05-25T02:08:48.471Z,22.43
2019-05-25T02:11:17.066Z,18.00
2019-05-25T02:13:45.650Z,20.10
2019-05-25T02:16:14.169Z,19.20
2019-05-25T02:18:45.616Z,18.53
2019-05-25T02:21:12.985Z,18.87
2019-05-25T02:23:41.639Z,20.10
2019-05-25T02:26:10.147Z,19.60
2019-05-25T02:28:38.631Z,22.23
2019-05-25T02:31:07.102Z,19.97
2019-05-25T02:33:35.690Z,20.57
2019-05-25T02:36:04.233Z,18.73
2019-05-25T02:38:32.776Z,21.13
2019-05-25T02:41:01.249Z,23.37
2019-05-25T02:43:29.730Z,22.67
2019-05-25T02:45:58.371Z,19.83
2019-05-25T02:48:27.003Z,19.50
2019-05-25T02:50:55.479Z,19.53
2019-05-25T02:53:23.925Z,23.47
2019-05-25T02:55:52.498Z,21.03
2019-05-25T02:58:21.007Z,20.20
2019-05-25T03:00:49.484Z,19.30
2019-05-25T03:03:18.126Z,22.20
2019-05-25T03:05:47.008Z,21.73
2019-05-25T03:08:15.520Z,17.77
2019-05-25T03:10:44.168Z,19.90
2019-05-25T03:13:12.668Z,19.30
2019-05-25T03:15:41.309Z,20.27
2019-05-25T03:18:09.785Z,21.47
2019-05-25T03:20:38.368Z,21.17
2019-05-25T03:23:06.822Z,21.60
2019-05-25T03:25:48.686Z,20.73
2019-05-25T03:28:05.507Z,21.83
2019-05-25T03:30:36.394Z,25.80
2019-05-25T03:33:04.900Z,20.37
2019-05-25T03:35:33.476Z,17.07
2019-05-25T03:38:01.939Z,13.57
2019-05-25T03:40:30.394Z,12.43
2019-05-25T03:42:58.908Z,12.43
2019-05-25T03:45:27.406Z,15.77
2019-05-25T03:47:56.042Z,14.27
2019-05-25T03:50:24.498Z,15.13
2019-05-25T03:55:34.299Z,21.73
2019-05-25T03:58:02.854Z,24.50
2019-05-25T04:00:36.103Z,23.87
2019-05-25T04:03:05.052Z,25.20
2019-05-25T04:05:33.502Z,27.33
2019-05-25T04:08:01.999Z,23.90
2019-05-25T04:10:30.450Z,25.00
2019-05-25T04:12:58.929Z,26.27
2019-05-25T04:15:27.387Z,23.23
2019-05-25T04:17:55.930Z,26.57
2019-05-25T04:20:24.388Z,25.33
2019-05-25T04:22:52.884Z,24.27
2019-05-25T04:25:21.342Z,27.43
2019-05-25T04:27:49.827Z,22.47
2019-05-25T04:30:20.311Z,28.10
2019-05-25T04:32:48.845Z,26.93
2019-05-25T04:35:17.316Z,30.90
2019-05-25T04:37:46.237Z,25.80
2019-05-25T04:40:14.823Z,26.27
2019-05-25T04:42:43.451Z,29.97
2019-05-25T04:45:12.095Z,29.47
2019-05-25T04:47:40.718Z,25.30
2019-05-25T04:50:09.287Z,25.27
2019-05-25T04:52:41.073Z,28.17
2019-05-25T04:55:08.139Z,26.50
2019-05-25T04:57:36.614Z,26.40
2019-05-25T05:00:08.363Z,28.47
2019-05-25T05:02:37.027Z,23.87
2019-05-25T05:05:06.720Z,28.57
2019-05-25T05:07:35.283Z,27.73
2019-05-25T05:10:05.612Z,28.83
2019-05-25T05:12:34.058Z,28.67
2019-05-25T05:15:02.627Z,28.40
2019-05-25T05:17:31.181Z,25.70
2019-05-25T05:19:59.830Z,24.97
2019-05-25T05:22:28.354Z,26.33
2019-05-25T05:24:56.816Z,27.57
2019-05-25T05:27:25.335Z,26.63
2019-05-25T05:29:53.938Z,25.43
2019-05-25T05:32:27.398Z,25.93
2019-05-25T05:34:52.746Z,22.80
2019-05-25T05:37:21.234Z,24.43
2019-05-25T05:39:49.938Z,25.20
2019-05-25T05:42:18.432Z,22.83
2019-05-25T05:44:46.951Z,27.63
2019-05-25T05:47:15.460Z,23.43
2019-05-25T05:49:44.032Z,21.87
2019-05-25T05:52:12.617Z,23.67
2019-05-25T05:54:41.128Z,20.73
2019-05-25T05:57:12.616Z,23.73
2019-05-25T05:59:39.990Z,23.27
2019-05-25T06:02:08.607Z,22.77
2019-05-25T06:04:37.111Z,22.53
2019-05-25T06:07:05.742Z,24.00
2019-05-25T06:09:34.222Z,25.27
2019-05-25T06:12:02.682Z,27.00
2019-05-25T06:14:31.246Z,22.67
2019-05-25T06:17:00.169Z,23.60
2019-05-25T06:19:28.996Z,23.00
2019-05-25T06:21:57.737Z,21.47
2019-05-25T06:24:26.246Z,22.87
2019-05-25T06:26:54.768Z,19.87
2019-05-25T06:29:23.251Z,21.07
2019-05-25T06:31:51.799Z,20.23
2019-05-25T06:34:20.301Z,22.30
2019-05-25T06:36:48.983Z,17.03
2019-05-25T06:39:17.671Z,19.00
2019-05-25T06:41:52.075Z,20.87
2019-05-25T06:44:20.679Z,21.23
2019-05-25T06:46:50.044Z,17.63
2019-05-25T06:49:18.749Z,20.80
2019-05-25T06:51:47.242Z,16.83
2019-05-25T06:54:15.868Z,17.87
2019-05-25T06:56:46.450Z,16.73
2019-05-25T06:59:14.987Z,17.37
2019-05-25T07:01:43.496Z,18.47
2019-05-25T07:04:12.167Z,17.67
2019-05-25T07:06:42.513Z,16.67
2019-05-25T07:09:11.256Z,16.60
2019-05-25T07:11:39.846Z,22.83
2019-05-25T07:14:08.744Z,14.67
2019-05-25T07:16:37.451Z,17.87
2019-05-25T07:19:06.055Z,15.17
2019-05-25T07:21:34.722Z,21.97
2019-05-25T07:24:03.361Z,23.87
2019-05-25T07:26:32.096Z,19.43
2019-05-25T07:29:00.664Z,18.60
2019-05-25T07:31:29.451Z,21.60
2019-05-25T07:33:58.028Z,20.53
2019-05-25T07:36:26.543Z,22.57
2019-05-25T07:38:55.023Z,20.93
2019-05-25T07:41:23.783Z,24.20
2019-05-25T07:43:54.473Z,30.83
2019-05-25T07:46:23.030Z,37.37
2019-05-25T07:48:51.686Z,33.13
2019-05-25T07:51:20.350Z,33.97
2019-05-25T07:53:48.963Z,28.93
2019-05-25T07:56:17.527Z,31.60
2019-05-25T07:58:46.013Z,33.63
2019-05-25T08:01:15.006Z,31.83
2019-05-25T08:03:43.519Z,34.33
2019-05-25T08:06:12.186Z,26.40
2019-05-25T08:08:40.810Z,36.00
2019-05-25T08:11:09.604Z,51.77
2019-05-25T08:13:38.186Z,37.13
2019-05-25T08:16:06.757Z,31.70
2019-05-25T08:18:35.767Z,43.90
2019-05-25T08:21:04.602Z,42.17
2019-05-25T08:23:33.114Z,41.70
2019-05-25T08:26:01.643Z,48.43
2019-05-25T08:28:33.128Z,53.30
2019-05-25T08:31:01.436Z,53.23
2019-05-25T08:33:30.415Z,52.00
2019-05-25T08:36:01.001Z,57.50
2019-05-25T08:38:29.646Z,59.33
2019-05-25T08:40:58.269Z,49.70
2019-05-25T08:43:27.026Z,53.57
2019-05-25T08:45:55.751Z,52.83
2019-05-25T08:48:24.375Z,49.93
2019-05-25T08:50:53.070Z,52.33
2019-05-25T08:53:37.545Z,67.40
2019-05-25T08:55:51.687Z,60.40
2019-05-25T08:58:20.311Z,63.87
2019-05-25T09:00:49.012Z,64.80
2019-05-25T09:03:17.532Z,57.03
2019-05-25T09:05:46.119Z,54.80
2019-05-25T09:08:14.671Z,44.57
2019-05-25T09:10:43.200Z,41.90
2019-05-25T09:13:11.712Z,45.73
2019-05-25T09:15:40.208Z,42.27
2019-05-25T09:18:08.796Z,40.53
2019-05-25T09:20:37.426Z,40.40
2019-05-25T09:23:06.066Z,37.77
2019-05-25T09:25:34.531Z,44.40
2019-05-25T09:28:03.011Z,39.53
2019-05-25T09:30:33.364Z,35.47
2019-05-25T09:33:03.039Z,41.07
2019-05-25T09:35:31.634Z,35.90
2019-05-25T09:38:00.277Z,35.53
2019-05-25T09:40:28.863Z,36.07
2019-05-25T09:42:57.388Z,39.87
2019-05-25T09:45:25.887Z,35.50
2019-05-25T09:48:14.027Z,42.97
2019-05-25T09:50:42.647Z,91.33
2019-05-25T09:53:11.262Z,42.17
2019-05-25T09:55:40.999Z,35.83
2019-05-25T09:58:09.882Z,37.13
2019-05-25T10:00:40.293Z,38.77
2019-05-25T10:03:08.823Z,30.63
2019-05-25T10:05:37.343Z,33.33
2019-05-25T10:08:05.842Z,36.00
2019-05-25T10:10:34.356Z,40.67
2019-05-25T10:13:04.642Z,34.80
2019-05-25T10:15:34.891Z,35.03
2019-05-25T10:18:03.489Z,39.90
2019-05-25T10:20:32.250Z,37.10
2019-05-25T10:23:00.986Z,40.43
2019-05-25T10:25:29.809Z,33.37
2019-05-25T10:27:58.328Z,36.47
2019-05-25T10:30:26.783Z,36.53
2019-05-25T10:32:55.382Z,31.53
2019-05-25T10:35:25.075Z,30.37
2019-05-25T10:37:53.560Z,25.13
2019-05-25T10:40:30.294Z,26.87
2019-05-25T10:42:58.971Z,28.07
2019-05-25T10:45:27.778Z,26.60
2019-05-25T10:47:56.361Z,24.83
2019-05-25T10:50:25.163Z,21.97
2019-05-25T10:52:53.760Z,25.97
2019-05-25T10:55:22.431Z,24.60
2019-05-25T10:57:51.027Z,25.83
2019-05-25T11:00:19.667Z,25.60
2019-05-25T11:02:48.251Z,28.47
2019-05-25T11:05:19.970Z,29.23
2019-05-25T11:07:49.893Z,29.30
2019-05-25T11:10:18.885Z,27.73
2019-05-25T11:12:54.790Z,28.07
2019-05-25T11:15:23.336Z,29.17
2019-05-25T11:17:56.793Z,29.33
2019-05-25T11:20:23.240Z,30.63
2019-05-25T11:22:53.964Z,35.60
2019-05-25T11:25:23.075Z,39.43
2019-05-25T11:27:53.558Z,36.27
2019-05-25T11:30:24.761Z,32.13
2019-05-25T11:32:53.457Z,33.80
2019-05-25T11:35:23.661Z,32.33
2019-05-25T11:37:52.262Z,35.57
2019-05-25T11:40:20.934Z,32.57
2019-05-25T11:42:49.419Z,31.17
2019-05-25T11:45:18.007Z,35.00
2019-05-25T11:47:46.462Z,35.30
2019-05-25T11:50:17.862Z,36.63
2019-05-25T11:52:46.987Z,37.30
2019-05-25T11:55:15.788Z,39.03
2019-05-25T11:57:44.723Z,40.80
2019-05-25T12:00:24.787Z,38.63
2019-05-25T12:02:48.219Z,35.50
2019-05-25T12:05:18.583Z,34.93
2019-05-25T12:07:47.359Z,30.53
2019-05-25T12:10:20.271Z,32.00
2019-05-25T12:12:49.286Z,28.43
2019-05-25T12:15:19.690Z,28.67
2019-05-25T12:17:48.268Z,30.47
2019-05-25T12:20:16.971Z,28.17
2019-05-25T12:22:46.142Z,31.97
2019-05-25T12:25:14.614Z,27.43
2019-05-25T12:27:43.063Z,29.80
2019-05-25T12:30:11.603Z,29.93
2019-05-25T12:32:40.073Z,33.70
2019-05-25T12:35:08.626Z,32.37
2019-05-25T12:37:37.090Z,31.37
2019-05-25T12:40:06.388Z,33.93
2019-05-25T12:42:35.326Z,34.83
2019-05-25T12:45:04.682Z,30.97
2019-05-25T12:47:38.398Z,33.67
2019-05-25T12:50:09.038Z,38.00
2019-05-25T12:52:37.677Z,32.67
2019-05-25T12:55:10.341Z,33.17
2019-05-25T12:57:43.178Z,34.97
2019-05-25T13:00:17.513Z,37.90
2019-05-25T13:02:48.833Z,39.67
2019-05-25T13:05:31.197Z,38.87
2019-05-25T13:07:47.684Z,37.93
2019-05-25T13:10:19.254Z,38.20
2019-05-25T13:12:53.395Z,36.03
2019-05-25T13:15:25.437Z,43.30
2019-05-25T13:17:57.219Z,34.67
2019-05-25T13:20:25.739Z,38.10
2019-05-25T13:22:54.488Z,37.10
2019-05-25T13:25:23.040Z,33.57
2019-05-25T13:27:51.674Z,36.80
2019-05-25T13:30:20.135Z,34.57
2019-05-25T13:32:48.634Z,33.27
2019-05-25T13:35:18.170Z,32.60
2019-05-25T13:37:46.684Z,32.30
2019-05-25T13:40:15.136Z,29.37
2019-05-25T13:42:43.840Z,32.53
2019-05-25T13:45:12.401Z,37.87
2019-05-25T13:47:40.941Z,37.40
2019-05-25T13:50:09.598Z,41.47
2019-05-25T13:52:38.147Z,35.60
2019-05-25T13:55:07.036Z,34.03
2019-05-25T13:57:35.724Z,33.43
2019-05-25T14:00:05.468Z,34.83
2019-05-25T14:02:34.045Z,32.07
2019-05-25T14:05:02.668Z,29.43
2019-05-25T14:07:31.194Z,33.47
2019-05-25T14:09:59.779Z,34.00
2019-05-25T14:12:29.943Z,26.80
2019-05-25T14:14:58.603Z,30.87
2019-05-25T14:17:27.040Z,29.37
2019-05-25T14:19:55.623Z,26.50
2019-05-25T14:22:24.183Z,30.57
2019-05-25T14:24:52.756Z,29.27
2019-05-25T14:27:21.625Z,31.90
2019-05-25T14:29:50.328Z,28.80
2019-05-25T14:32:19.078Z,33.67
2019-05-25T14:34:47.777Z,33.23
2019-05-25T14:37:16.450Z,34.07
2019-05-25T14:39:45.035Z,32.60
2019-05-25T14:42:13.756Z,30.77
2019-05-25T14:44:43.565Z,34.73
2019-05-25T14:47:13.797Z,31.53
2019-05-25T14:49:42.274Z,33.50
2019-05-25T14:52:11.363Z,33.17
2019-05-25T14:54:40.207Z,33.07
2019-05-25T14:57:10.409Z,34.43
2019-05-25T14:59:38.882Z,35.20
2019-05-25T15:02:08.036Z,37.10
2019-05-25T15:04:36.576Z,35.23
2019-05-25T15:07:05.834Z,35.33
2019-05-25T15:09:34.526Z,38.17
2019-05-25T15:12:03.165Z,34.37
2019-05-25T15:14:31.631Z,32.57
2019-05-25T15:17:00.607Z,30.40
2019-05-25T15:19:29.091Z,33.03
2019-05-25T15:21:57.960Z,35.33
2019-05-25T15:24:26.554Z,30.07
2019-05-25T15:26:57.764Z,35.83
2019-05-25T15:29:26.258Z,36.63
2019-05-25T15:31:54.787Z,37.70
2019-05-25T15:34:23.387Z,43.27
2019-05-25T15:36:52.054Z,47.13
2019-05-25T15:39:20.810Z,42.53
2019-05-25T15:41:49.352Z,47.17
2019-05-25T15:44:18.101Z,45.63
2019-05-25T15:46:46.755Z,49.50
2019-05-25T15:49:15.288Z,51.33
2019-05-25T15:51:43.850Z,49.83
2019-05-25T15:54:12.396Z,46.23
2019-05-25T15:56:40.997Z,50.13
2019-05-25T15:59:09.596Z,54.07
2019-05-25T16:01:38.150Z,42.53
2019-05-25T16:04:06.688Z,44.10
2019-05-25T16:06:35.182Z,40.13
2019-05-25T16:09:04.683Z,39.90
2019-05-25T16:11:34.879Z,39.37
2019-05-25T16:14:03.373Z,32.70
2019-05-25T16:16:35.510Z,25.53
2019-05-25T16:19:04.079Z,19.93
2019-05-25T16:21:32.564Z,18.07
2019-05-25T16:24:01.039Z,17.80
2019-05-25T16:26:43.082Z,16.13
2019-05-25T16:28:59.715Z,19.33
2019-05-25T16:31:28.307Z,15.37
2019-05-25T16:33:56.765Z,16.37
2019-05-25T16:36:25.376Z,18.33
2019-05-25T16:38:54.045Z,23.53
2019-05-25T16:41:22.721Z,25.43
2019-05-25T16:43:51.243Z,22.73
2019-05-25T16:46:19.725Z,20.27
2019-05-25T16:48:48.372Z,20.13
2019-05-25T16:51:16.854Z,22.47
2019-05-25T16:53:45.533Z,25.93
2019-05-25T16:56:13.996Z,29.40
2019-05-25T16:58:42.454Z,29.37
2019-05-25T17:01:11.121Z,28.77
2019-05-25T17:03:39.606Z,30.03
2019-05-25T17:06:08.096Z,29.17
2019-05-25T17:08:36.654Z,28.80
2019-05-25T17:11:05.141Z,25.43
2019-05-25T17:13:34.959Z,36.20
2019-05-25T17:16:03.484Z,38.27
2019-05-25T17:18:32.055Z,37.73
2019-05-25T17:21:00.513Z,46.17
2019-05-25T17:23:29.407Z,49.90
2019-05-25T17:25:58.096Z,48.83
2019-05-25T17:28:26.586Z,48.00
2019-05-25T17:30:55.309Z,46.10
2019-05-25T17:33:23.830Z,49.67
2019-05-25T17:35:52.488Z,50.33
2019-05-25T17:38:20.956Z,48.70
2019-05-25T17:40:49.496Z,46.77
2019-05-25T17:43:18.568Z,53.03
2019-05-25T17:45:47.119Z,50.67
2019-05-25T17:48:15.641Z,51.50
2019-05-25T17:50:48.447Z,42.63
2019-05-25T17:53:17.095Z,61.33
2019-05-25T17:55:51.087Z,64.13
2019-05-25T17:58:24.030Z,68.90
2019-05-25T18:00:50.795Z,63.90
2019-05-25T18:03:19.438Z,62.47
2019-05-25T18:05:50.395Z,66.23
2019-05-25T18:08:21.710Z,68.07
2019-05-25T18:10:53.458Z,66.23
2019-05-25T18:13:20.482Z,65.73
2019-05-25T18:15:50.810Z,63.77
2019-05-25T18:18:19.269Z,64.47
2019-05-25T18:20:48.098Z,66.07
2019-05-25T18:23:16.607Z,68.00
2019-05-25T18:25:45.219Z,64.10
2019-05-25T18:28:13.880Z,72.07
2019-05-25T18:30:42.499Z,70.33
2019-05-25T18:33:10.967Z,64.70
2019-05-25T18:35:39.618Z,59.33
2019-05-25T18:38:08.148Z,54.07
2019-05-25T18:40:36.725Z,56.70
2019-05-25T18:43:05.257Z,53.13
2019-05-25T18:45:33.810Z,60.13
2019-05-25T18:48:02.621Z,55.37
2019-05-25T18:50:31.078Z,53.60
2019-05-25T18:52:59.579Z,54.77
2019-05-25T18:55:28.154Z,56.07
2019-05-25T18:57:56.713Z,54.77
2019-05-25T19:00:25.174Z,51.37
2019-05-25T19:02:53.627Z,52.33
2019-05-25T19:05:29.841Z,52.10
2019-05-25T19:08:03.498Z,41.53
2019-05-25T19:10:32.101Z,35.77
2019-05-25T19:13:06.585Z,35.47
2019-05-25T19:18:29.242Z,33.83
2019-05-25T19:21:03.818Z,34.30
2019-05-25T19:23:32.627Z,30.50
2019-05-25T19:26:01.170Z,30.87
2019-05-25T19:28:30.388Z,30.90
2019-05-25T19:30:58.959Z,31.90
2019-05-25T19:33:27.691Z,38.03
2019-05-25T19:35:57.809Z,35.53
2019-05-25T19:38:26.522Z,46.50
2019-05-25T19:40:55.074Z,39.93
2019-05-25T19:46:12.344Z,35.43
2019-05-25T19:48:41.466Z,28.57
2019-05-25T19:51:21.310Z,28.63
2019-05-25T19:53:51.664Z,24.87
2019-05-25T19:56:20.186Z,26.83
2019-05-25T19:58:52.219Z,28.53
2019-05-25T20:01:20.872Z,26.80
2019-05-25T20:03:58.287Z,25.37
2019-05-25T20:06:47.805Z,30.43
2019-05-25T20:09:16.141Z,25.23
2019-05-25T20:11:44.933Z,22.63
2019-05-25T20:14:13.429Z,23.87
2019-05-25T20:16:43.702Z,21.93
2019-05-25T20:19:12.247Z,27.50
2019-05-25T20:21:41.064Z,24.50
2019-05-25T20:24:09.746Z,22.80
2019-05-25T20:26:38.317Z,23.90
2019-05-25T20:29:07.002Z,23.63
2019-05-25T20:31:35.504Z,23.27
2019-05-25T20:34:04.129Z,19.93
2019-05-25T20:36:32.655Z,18.67
2019-05-25T20:39:01.511Z,20.50
2019-05-25T20:41:30.094Z,19.90
2019-05-25T20:43:58.631Z,21.73
2019-05-25T20:46:27.241Z,21.60
2019-05-25T20:48:55.719Z,22.20
2019-05-25T20:51:24.200Z,23.60
2019-05-25T20:53:52.727Z,19.37
2019-05-25T20:56:21.325Z,20.53
2019-05-25T20:58:49.918Z,24.00
2019-05-25T21:01:18.445Z,19.33
2019-05-25T21:03:46.902Z,22.77
2019-05-25T21:06:15.407Z,21.33
2019-05-25T21:08:43.870Z,22.77
2019-05-25T21:11:12.341Z,18.77
2019-05-25T21:13:40.905Z,26.40
2019-05-25T21:16:09.340Z,22.50
2019-05-25T21:18:37.906Z,23.33
2019-05-25T21:21:07.413Z,20.57
2019-05-25T21:23:35.987Z,21.27
2019-05-25T21:26:04.430Z,24.10
2019-05-25T21:28:32.899Z,22.57
2019-05-25T21:31:01.396Z,21.87
2019-05-25T21:33:29.967Z,20.33
2019-05-25T21:36:08.388Z,19.60
2019-05-25T21:38:28.647Z,20.20
2019-05-25T21:40:57.184Z,21.27
2019-05-25T21:43:25.727Z,20.00
2019-05-25T21:45:54.263Z,22.10
2019-05-25T21:48:22.701Z,21.10
2019-05-25T21:50:51.146Z,21.60
2019-05-25T21:53:21.397Z,20.67
2019-05-25T21:55:49.863Z,21.27
2019-05-25T21:58:20.293Z,26.97
2019-05-25T22:00:51.582Z,31.80
2019-05-25T22:03:23.564Z,34.10
2019-05-25T22:05:52.390Z,34.43
2019-05-25T22:08:21.263Z,41.70
2019-05-25T22:10:50.184Z,36.53
2019-05-25T22:13:28.053Z,30.93
2019-05-25T22:15:48.900Z,29.97
2019-05-25T22:18:18.419Z,30.03
2019-05-25T22:20:46.970Z,28.90
2019-05-25T22:23:17.253Z,25.47
2019-05-25T22:25:45.821Z,27.73
2019-05-25T22:28:15.031Z,24.40
2019-05-25T22:30:43.794Z,25.17
2019-05-25T22:33:12.324Z,24.77
2019-05-25T22:35:40.981Z,25.63
2019-05-25T22:38:09.905Z,27.03
2019-05-25T22:40:38.461Z,24.23
2019-05-25T22:43:07.073Z,23.53
2019-05-25T22:45:35.719Z,27.90
2019-05-25T22:48:04.408Z,24.10
2019-05-25T22:50:33.030Z,23.80
2019-05-25T22:53:01.679Z,24.33
2019-05-25T22:55:30.301Z,24.43
2019-05-25T22:57:58.918Z,23.00
2019-05-25T23:00:27.440Z,23.70
2019-05-25T23:02:55.918Z,23.37
2019-05-25T23:05:24.424Z,22.23
2019-05-25T23:07:52.962Z,24.60
2019-05-25T23:10:21.592Z,24.97
2019-05-25T23:12:50.046Z,25.37
2019-05-25T23:15:18.506Z,21.93
2019-05-25T23:17:47.089Z,24.13
2019-05-25T23:20:16.319Z,23.50
2019-05-25T23:22:44.770Z,24.43
2019-05-25T23:25:13.227Z,24.17
2019-05-25T23:27:41.832Z,21.97
2019-05-25T23:30:10.417Z,25.07
2019-05-25T23:32:39.006Z,21.77
2019-05-25T23:35:07.504Z,23.10
2019-05-25T23:37:35.943Z,24.40
2019-05-25T23:40:07.733Z,22.90
2019-05-25T23:42:36.267Z,23.17
2019-05-25T23:45:06.555Z,25.87
2019-05-25T23:47:35.132Z,25.03
2019-05-25T23:50:07.732Z,22.87
2019-05-25T23:52:36.230Z,24.73
2019-05-25T23:55:06.386Z,26.73
2019-05-25T23:57:34.933Z,24.57
